createdAt,value
2019-03-22T10:34:18.455Z,16.53
2019-03-22T10:36:49.528Z,17.13
2019-03-22T10:39:19.979Z,17.09
2019-03-22T10:41:50.521Z,17.15
2019-03-22T10:44:21.138Z,16.97
2019-03-22T10:46:51.675Z,16.97
2019-03-22T10:49:22.536Z,17.21
2019-03-22T10:51:57.427Z,17.20
2019-03-22T10:54:24.749Z,17.11
2019-03-22T10:59:31.987Z,18.04
2019-03-22T11:02:04.006Z,18.04
2019-03-22T11:04:45.895Z,17.49
2019-03-22T11:07:19.333Z,17.49
2019-03-22T11:09:49.512Z,17.75
2019-03-22T11:12:19.777Z,17.71
2019-03-22T11:14:53.819Z,17.56
2019-03-22T11:17:24.659Z,17.69
2019-03-22T11:19:57.473Z,17.71
2019-03-22T11:22:29.174Z,17.71
2019-03-22T11:25:00.182Z,17.64
2019-03-22T11:27:32.978Z,17.69
2019-03-22T11:30:03.309Z,17.96
2019-03-22T11:32:33.638Z,17.79
2019-03-22T11:35:03.934Z,17.79
2019-03-22T11:37:36.607Z,18.16
2019-03-22T11:40:08.734Z,17.98
2019-03-22T11:42:39.142Z,18.25
2019-03-22T11:45:12.517Z,18.05
2019-03-22T11:47:43.930Z,17.88
2019-03-22T11:50:14.317Z,18.12
2019-03-22T11:52:44.780Z,18.26
2019-03-22T11:55:15.308Z,18.26
2019-03-22T11:57:47.921Z,18.26
2019-03-22T12:00:21.320Z,18.38
2019-03-22T12:02:51.569Z,18.47
2019-03-22T12:05:22.749Z,18.27
2019-03-22T12:07:53.123Z,18.52
2019-03-22T12:10:23.520Z,18.70
2019-03-22T12:12:55.972Z,18.48
2019-03-22T12:15:26.414Z,18.48
2019-03-22T12:17:57.977Z,18.52
2019-03-22T12:20:28.141Z,18.29
2019-03-22T12:22:58.326Z,18.74
2019-03-22T12:25:28.822Z,18.51
2019-03-22T12:27:59.886Z,18.86
2019-03-22T12:30:30.557Z,18.73
2019-03-22T12:33:00.524Z,18.84
2019-03-22T12:35:32.330Z,18.76
2019-03-22T12:38:02.732Z,18.76
2019-03-22T12:40:33.132Z,18.71
2019-03-22T12:43:03.675Z,18.99
2019-03-22T12:45:34.010Z,18.99
2019-03-22T12:48:04.751Z,18.96
2019-03-22T12:50:36.106Z,18.89
2019-03-22T12:53:07.772Z,18.89
2019-03-22T12:55:38.004Z,18.85
2019-03-22T12:58:08.677Z,18.95
2019-03-22T13:00:39.308Z,19.04
2019-03-22T13:03:18.518Z,19.04
2019-03-22T13:05:49.276Z,19.04
2019-03-22T13:08:20.581Z,19.11
2019-03-22T13:10:52.450Z,19.11
2019-03-22T13:13:24.287Z,19.31
2019-03-22T13:15:55.527Z,19.40
2019-03-22T13:18:26.135Z,19.49
2019-03-22T13:20:59.027Z,19.35
2019-03-22T13:23:33.147Z,19.46
2019-03-22T13:26:04.797Z,19.52
2019-03-22T13:28:36.834Z,19.52
2019-03-22T13:31:13.064Z,19.48
2019-03-22T13:33:46.369Z,19.53
2019-03-22T13:36:17.129Z,19.53
2019-03-22T13:38:47.388Z,19.63
2019-03-22T13:41:19.483Z,19.50
2019-03-22T13:43:50.424Z,19.78
2019-03-22T13:46:21.194Z,19.47
2019-03-22T13:48:52.242Z,19.57
2019-03-22T13:51:22.693Z,19.75
2019-03-22T13:53:53.205Z,19.89
2019-03-22T13:56:23.433Z,19.89
2019-03-22T13:58:54.474Z,19.89
2019-03-22T14:01:30.247Z,19.79
2019-03-22T14:03:58.506Z,19.79
2019-03-22T14:12:40.354Z,19.83
2019-03-22T14:15:10.617Z,19.83
2019-03-22T14:17:40.736Z,19.87
2019-03-22T14:20:12.977Z,19.88
2019-03-22T14:22:49.023Z,20.00
2019-03-22T14:25:20.512Z,19.98
2019-03-22T14:27:51.095Z,19.98
2019-03-22T14:30:35.050Z,19.98
2019-03-22T14:33:16.044Z,19.80
2019-03-22T14:35:48.450Z,19.80
2019-03-22T14:38:19.094Z,20.02
2019-03-22T14:40:52.013Z,20.02
2019-03-22T14:43:23.006Z,20.08
2019-03-22T14:45:53.176Z,20.09
2019-03-22T14:48:23.346Z,20.09
2019-03-22T14:50:53.897Z,20.24
2019-03-22T14:53:24.413Z,20.24
2019-03-22T14:55:59.536Z,20.09
2019-03-22T14:58:30.316Z,20.09
2019-03-22T15:01:03.450Z,20.32
2019-03-22T15:03:33.725Z,20.39
2019-03-22T15:06:03.993Z,20.44
2019-03-22T15:08:34.662Z,20.26
2019-03-22T15:11:04.998Z,20.28
2019-03-22T15:14:11.507Z,20.28
2019-03-22T15:17:14.825Z,20.34
2019-03-22T15:20:16.178Z,20.34
2019-03-22T15:23:05.392Z,20.42
2019-03-22T15:26:06.555Z,20.26
2019-03-22T15:29:05.963Z,20.22
2019-03-22T15:31:57.934Z,20.40
2019-03-22T15:34:49.895Z,20.09
2019-03-22T15:37:37.128Z,20.14
2019-03-22T15:40:08.447Z,20.14
2019-03-22T15:42:38.512Z,19.86
2019-03-22T15:45:10.492Z,19.86
2019-03-22T15:47:44.943Z,19.96
2019-03-22T15:50:17.892Z,19.80
2019-03-22T15:52:47.856Z,19.80
2019-03-22T15:55:18.580Z,19.89
2019-03-22T15:57:49.137Z,19.85
2019-03-22T16:00:21.139Z,19.69
2019-03-22T16:02:53.709Z,19.97
2019-03-22T16:05:24.099Z,19.97
2019-03-22T16:07:54.411Z,20.03
2019-03-22T16:10:25.065Z,19.88
2019-03-22T16:12:55.330Z,19.84
2019-03-22T16:15:25.591Z,19.84
2019-03-22T16:17:55.689Z,20.15
2019-03-22T16:20:26.847Z,19.79
2019-03-22T16:22:56.954Z,19.79
2019-03-22T16:25:27.134Z,19.76
2019-03-22T16:27:57.556Z,19.73
2019-03-22T16:30:27.996Z,19.20
2019-03-22T16:32:58.244Z,19.50
2019-03-22T16:35:28.596Z,19.00
2019-03-22T16:38:04.057Z,19.08
2019-03-22T16:40:34.253Z,18.75
2019-03-22T16:43:07.407Z,18.75
2019-03-22T16:45:44.362Z,18.74
2019-03-22T16:48:16.134Z,19.02
2019-03-22T16:50:48.419Z,18.87
2019-03-22T16:53:19.460Z,18.60
2019-03-22T16:55:50.652Z,18.60
2019-03-22T16:58:20.862Z,18.29
2019-03-22T17:00:56.399Z,18.29
2019-03-22T17:03:26.342Z,18.11
2019-03-22T17:05:57.735Z,17.89
2019-03-22T17:08:28.145Z,17.89
2019-03-22T17:10:58.138Z,17.80
2019-03-22T17:13:28.478Z,17.82
2019-03-22T17:15:58.595Z,17.71
2019-03-22T17:18:28.630Z,17.71
2019-03-22T17:20:58.965Z,17.27
2019-03-22T17:23:29.065Z,17.26
2019-03-22T17:25:59.544Z,17.26
2019-03-22T17:28:29.781Z,17.03
2019-03-22T17:31:01.742Z,16.99
2019-03-22T17:33:34.455Z,16.99
2019-03-22T17:36:04.442Z,16.91
2019-03-22T17:38:34.574Z,16.78
2019-03-22T17:41:05.127Z,16.78
2019-03-22T17:43:35.178Z,16.55
2019-03-22T17:46:05.204Z,16.53
2019-03-22T17:48:35.202Z,16.35
2019-03-22T17:51:05.743Z,16.35
2019-03-22T17:53:39.460Z,16.28
2019-03-22T17:56:11.743Z,16.03
2019-03-22T17:58:45.253Z,16.05
2019-03-22T18:01:15.544Z,15.94
2019-03-22T18:03:50.837Z,15.83
2019-03-22T18:06:25.335Z,15.73
2019-03-22T18:08:56.017Z,15.73
2019-03-22T18:11:30.002Z,15.57
2019-03-22T18:14:00.351Z,15.33
2019-03-22T18:16:31.421Z,15.33
2019-03-22T18:19:01.617Z,15.29
2019-03-22T18:21:32.518Z,15.13
2019-03-22T18:24:03.786Z,14.95
2019-03-22T18:26:34.098Z,14.95
2019-03-22T18:29:07.281Z,14.82
2019-03-22T18:31:38.243Z,14.82
2019-03-22T18:34:09.229Z,14.73
2019-03-22T18:36:39.516Z,14.67
2019-03-22T18:39:24.233Z,14.46
2019-03-22T18:41:42.347Z,14.35
2019-03-22T18:44:12.586Z,14.35
2019-03-22T18:46:43.165Z,14.21
2019-03-22T18:49:15.256Z,14.11
2019-03-22T18:51:46.101Z,14.08
2019-03-22T18:54:23.743Z,13.98
2019-03-22T18:56:55.456Z,13.89
2019-03-22T18:59:27.201Z,13.85
2019-03-22T19:01:57.452Z,13.75
2019-03-22T19:04:30.578Z,13.75
2019-03-22T19:07:01.963Z,13.70
2019-03-22T19:09:31.993Z,13.60
2019-03-22T19:12:01.955Z,13.47
2019-03-22T19:14:32.045Z,13.47
2019-03-22T19:17:03.251Z,13.40
2019-03-22T19:19:33.800Z,13.40
2019-03-22T19:22:03.778Z,13.38
2019-03-22T19:24:34.166Z,13.34
2019-03-22T19:27:04.649Z,13.26
2019-03-22T19:29:35.451Z,13.27
2019-03-22T19:32:13.399Z,13.25
2019-03-22T19:34:37.209Z,13.20
2019-03-22T19:37:07.315Z,13.20
2019-03-22T19:39:37.322Z,13.21
2019-03-22T19:42:07.376Z,13.21
2019-03-22T19:44:38.157Z,13.15
2019-03-22T19:47:08.616Z,13.15
2019-03-22T19:49:38.916Z,13.06
2019-03-22T19:52:08.971Z,13.03
2019-03-22T19:54:39.222Z,13.03
2019-03-22T19:57:09.154Z,13.01
2019-03-22T19:59:39.878Z,12.95
2019-03-22T20:02:10.577Z,12.92
2019-03-22T20:04:40.453Z,12.92
2019-03-22T20:07:10.699Z,12.89
2019-03-22T20:09:40.779Z,12.89
2019-03-22T20:12:11.006Z,12.79
2019-03-22T20:14:42.074Z,12.78
2019-03-22T20:17:15.372Z,12.78
2019-03-22T20:19:46.329Z,12.73
2019-03-22T20:22:21.477Z,12.66
2019-03-22T20:24:51.609Z,12.63
2019-03-22T20:27:23.508Z,12.56
2019-03-22T20:29:54.897Z,12.56
2019-03-22T20:32:25.296Z,12.51
2019-03-22T20:35:01.730Z,12.51
2019-03-22T20:37:31.949Z,12.53
2019-03-22T20:40:02.684Z,12.46
2019-03-22T20:42:32.978Z,12.38
2019-03-22T20:45:03.385Z,12.38
2019-03-22T20:47:33.667Z,12.32
2019-03-22T20:50:04.348Z,12.32
2019-03-22T20:52:34.965Z,12.27
2019-03-22T20:55:08.834Z,12.32
2019-03-22T20:57:39.089Z,12.32
2019-03-22T21:00:17.093Z,12.28
2019-03-22T21:02:47.640Z,12.22
2019-03-22T21:05:26.467Z,12.20
2019-03-22T21:07:52.121Z,12.14
2019-03-22T21:10:22.828Z,12.13
2019-03-22T21:12:53.053Z,12.07
2019-03-22T21:15:24.889Z,12.01
2019-03-22T21:17:55.757Z,12.01
2019-03-22T21:20:26.642Z,12.05
2019-03-22T21:23:01.371Z,11.95
2019-03-22T21:25:28.721Z,11.95
2019-03-22T21:28:10.837Z,11.92
2019-03-22T21:30:44.085Z,11.95
2019-03-22T21:33:14.421Z,11.84
2019-03-22T21:35:45.081Z,11.85
2019-03-22T21:38:16.704Z,11.83
2019-03-22T21:40:46.916Z,11.83
2019-03-22T21:43:17.231Z,11.75
2019-03-22T21:45:47.746Z,11.66
2019-03-22T21:48:18.603Z,11.64
2019-03-22T21:50:49.159Z,11.64
2019-03-22T21:53:20.149Z,11.64
2019-03-22T21:55:50.380Z,11.57
2019-03-22T21:58:22.413Z,11.57
2019-03-22T22:00:52.384Z,11.48
2019-03-22T22:03:22.621Z,11.48
2019-03-22T22:05:52.852Z,11.45
2019-03-22T22:08:23.937Z,11.39
2019-03-22T22:10:59.614Z,11.39
2019-03-22T22:13:27.798Z,11.34
2019-03-22T22:15:58.284Z,11.34
2019-03-22T22:18:29.326Z,11.32
2019-03-22T22:21:00.121Z,11.31
2019-03-22T22:23:31.109Z,11.23
2019-03-22T22:26:01.638Z,11.20
2019-03-22T22:28:31.878Z,11.20
2019-03-22T22:31:02.081Z,11.12
2019-03-22T22:33:32.398Z,11.09
2019-03-22T22:36:04.137Z,11.09
2019-03-22T22:41:02.499Z,11.44
2019-03-22T22:43:32.965Z,11.44
2019-03-22T22:46:03.221Z,11.41
2019-03-22T22:48:33.429Z,11.23
2019-03-22T22:51:03.881Z,11.13
2019-03-22T22:53:34.265Z,11.13
2019-03-22T22:56:05.107Z,11.11
2019-03-22T22:58:35.496Z,11.03
2019-03-22T23:01:05.888Z,10.98
2019-03-22T23:03:36.161Z,10.98
2019-03-22T23:06:09.728Z,10.97
2019-03-22T23:08:38.498Z,11.03
2019-03-22T23:11:08.747Z,11.01
2019-03-22T23:13:39.014Z,11.02
2019-03-22T23:16:09.328Z,11.03
2019-03-22T23:18:39.653Z,11.03
2019-03-22T23:21:10.262Z,11.03
2019-03-22T23:23:40.965Z,11.01
2019-03-22T23:26:11.253Z,11.01
2019-03-22T23:28:41.573Z,11.02
2019-03-22T23:31:11.883Z,11.04
2019-03-22T23:33:42.520Z,11.04
2019-03-22T23:36:20.281Z,11.02
2019-03-22T23:38:44.700Z,11.03
2019-03-22T23:41:15.001Z,11.04
2019-03-22T23:43:45.287Z,10.96
2019-03-22T23:46:15.756Z,11.02
2019-03-22T23:48:46.011Z,10.95
2019-03-22T23:51:16.562Z,10.95
2019-03-22T23:53:49.110Z,10.88
2019-03-22T23:56:19.467Z,10.90
2019-03-22T23:58:49.765Z,10.90
